createdAt,value
2022-08-09T00:00:23.460Z,99.90
2022-08-09T00:02:51.919Z,99.90
2022-08-09T00:06:15.706Z,99.90
2022-08-09T00:08:32.085Z,99.90
2022-08-09T00:11:24.234Z,99.90
2022-08-09T00:13:52.384Z,99.90
2022-08-09T00:16:26.540Z,99.90
2022-08-09T00:19:10.222Z,99.90
2022-08-09T00:21:38.500Z,99.90
2022-08-09T00:24:22.935Z,99.90
2022-08-09T00:26:51.461Z,99.90
2022-08-09T00:30:09.914Z,99.90
2022-08-09T00:32:12.710Z,99.90
2022-08-09T00:34:39.952Z,99.90
2022-08-09T00:37:18.724Z,99.90
2022-08-09T00:40:13.020Z,99.90
2022-08-09T00:44:15.597Z,99.90
2022-08-09T00:45:20.250Z,99.90
2022-08-09T00:47:47.837Z,99.90
2022-08-09T00:50:15.218Z,99.90
2022-08-09T00:52:42.640Z,99.90
2022-08-09T00:55:32.734Z,99.90
2022-08-09T00:57:59.610Z,99.90
2022-08-09T01:00:27.828Z,99.90
2022-08-09T01:03:00.573Z,99.90
2022-08-09T01:05:51.081Z,99.90
2022-08-09T01:08:48.910Z,99.90
2022-08-09T01:11:35.508Z,99.90
2022-08-09T01:14:24.330Z,99.90
2022-08-09T01:16:59.139Z,99.90
2022-08-09T01:19:51.844Z,99.90
2022-08-09T01:22:52.031Z,99.90
2022-08-09T01:25:30.217Z,99.90
2022-08-09T01:28:03.203Z,99.90
2022-08-09T01:30:52.128Z,99.90
2022-08-09T01:33:23.954Z,99.90
2022-08-09T01:36:08.776Z,99.90
2022-08-09T01:38:39.991Z,99.90
2022-08-09T01:41:13.158Z,99.90
2022-08-09T01:43:51.526Z,99.90
2022-08-09T01:46:25.215Z,99.90
2022-08-09T01:49:10.236Z,99.90
2022-08-09T01:51:42.863Z,99.90
2022-08-09T01:54:13.848Z,99.90
2022-08-09T01:56:47.251Z,99.90
2022-08-09T01:59:20.138Z,99.90
2022-08-09T02:01:59.833Z,99.90
2022-08-09T02:04:31.760Z,99.90
2022-08-09T02:07:15.324Z,99.90
2022-08-09T02:10:04.291Z,99.90
2022-08-09T02:12:35.472Z,99.90
2022-08-09T02:15:06.306Z,99.90
2022-08-09T02:18:09.644Z,99.90
2022-08-09T02:20:32.769Z,99.90
2022-08-09T02:23:12.686Z,99.90
2022-08-09T02:25:51.273Z,99.90
2022-08-09T02:28:36.346Z,99.90
2022-08-09T02:31:12.562Z,99.90
2022-08-09T02:34:06.737Z,99.90
2022-08-09T02:36:43.610Z,99.90
2022-08-09T02:39:39.785Z,99.90
2022-08-09T02:42:16.684Z,99.90
2022-08-09T02:44:58.934Z,99.90
2022-08-09T02:47:34.019Z,99.90
2022-08-09T02:50:25.186Z,99.90
2022-08-09T02:53:09.163Z,99.90
2022-08-09T02:55:58.288Z,99.90
2022-08-09T02:58:35.783Z,99.90
2022-08-09T03:01:08.332Z,99.90
2022-08-09T03:04:17.839Z,99.90
2022-08-09T03:06:30.452Z,99.90
2022-08-09T03:08:58.985Z,99.90
2022-08-09T03:12:05.281Z,99.90
2022-08-09T03:14:17.416Z,99.90
2022-08-09T03:16:48.173Z,99.90
2022-08-09T03:19:58.909Z,99.90
2022-08-09T03:22:12.202Z,99.90
2022-08-09T03:24:52.761Z,99.90
2022-08-09T03:27:44.726Z,99.90
2022-08-09T03:30:14.221Z,99.90
2022-08-09T03:32:58.599Z,99.90
2022-08-09T03:36:11.602Z,99.90
2022-08-09T03:38:16.022Z,99.90
2022-08-09T03:40:55.531Z,99.90
2022-08-09T03:43:22.624Z,99.90
2022-08-09T03:46:03.981Z,99.90
2022-08-09T03:48:43.031Z,99.90
2022-08-09T03:51:56.577Z,99.90
2022-08-09T03:54:11.430Z,99.90
2022-08-09T03:56:41.124Z,99.90
2022-08-09T03:59:17.303Z,99.90
2022-08-09T04:01:50.484Z,99.90
2022-08-09T04:04:18.156Z,99.90
2022-08-09T04:06:49.294Z,99.90
2022-08-09T04:09:48.250Z,99.90
2022-08-09T04:12:11.829Z,99.90
2022-08-09T04:15:00.665Z,99.90
2022-08-09T04:17:27.266Z,99.90
2022-08-09T04:19:57.290Z,99.90
2022-08-09T04:22:25.503Z,99.90
2022-08-09T04:24:58.007Z,99.90
2022-08-09T04:27:25.269Z,99.90
2022-08-09T04:29:55.085Z,99.90
2022-08-09T04:32:31.599Z,99.90
2022-08-09T04:35:01.597Z,99.90
2022-08-09T04:37:45.081Z,99.90
2022-08-09T04:40:28.875Z,99.90
2022-08-09T04:43:01.362Z,99.90
2022-08-09T04:45:30.614Z,99.90
2022-08-09T04:48:03.140Z,99.90
2022-08-09T04:50:37.669Z,99.90
2022-08-09T04:53:13.478Z,99.90
2022-08-09T04:55:58.126Z,99.90
2022-08-09T04:58:31.792Z,99.90
2022-08-09T05:01:02.018Z,99.90
2022-08-09T05:03:42.764Z,99.90
2022-08-09T05:06:21.971Z,99.90
2022-08-09T05:09:00.300Z,99.90
2022-08-09T05:11:35.416Z,99.90
2022-08-09T05:14:06.962Z,99.90
2022-08-09T05:16:58.484Z,99.90
2022-08-09T05:19:26.226Z,99.90
2022-08-09T05:21:58.994Z,99.90
2022-08-09T05:24:30.163Z,99.90
2022-08-09T05:26:57.397Z,99.90
2022-08-09T05:29:31.580Z,99.90
2022-08-09T05:32:02.457Z,99.90
2022-08-09T05:34:38.249Z,99.90
2022-08-09T05:37:11.451Z,99.90
2022-08-09T05:39:44.094Z,99.90
2022-08-09T05:42:27.872Z,99.90
2022-08-09T05:44:55.781Z,99.90
2022-08-09T05:47:25.148Z,99.90
2022-08-09T05:50:30.508Z,99.90
2022-08-09T05:52:43.777Z,99.90
2022-08-09T05:55:20.983Z,99.90
2022-08-09T05:57:55.840Z,99.90
2022-08-09T06:00:26.681Z,99.90
2022-08-09T06:02:57.830Z,99.90
2022-08-09T06:05:57.734Z,99.90
2022-08-09T06:08:24.901Z,99.90
2022-08-09T06:10:57.057Z,99.90
2022-08-09T06:13:34.073Z,99.90
2022-08-09T06:16:09.778Z,99.90
2022-08-09T06:18:38.028Z,99.90
2022-08-09T06:21:06.564Z,99.90
2022-08-09T06:23:58.662Z,99.90
2022-08-09T06:26:28.538Z,99.90
2022-08-09T06:29:01.167Z,99.90
2022-08-09T06:31:40.567Z,99.90
2022-08-09T06:34:26.149Z,99.90
2022-08-09T06:36:57.485Z,99.90
2022-08-09T06:39:58.093Z,99.90
2022-08-09T06:42:24.955Z,99.90
2022-08-09T06:44:57.408Z,99.90
2022-08-09T06:47:30.200Z,99.90
2022-08-09T06:50:13.348Z,99.70
2022-08-09T06:52:48.500Z,99.50
2022-08-09T06:55:23.137Z,99.80
2022-08-09T06:58:02.146Z,99.50
2022-08-09T07:00:51.715Z,99.20
2022-08-09T07:03:27.979Z,99.30
2022-08-09T07:06:04.893Z,99.40
2022-08-09T07:08:37.332Z,99.60
2022-08-09T07:11:07.332Z,99.20
2022-08-09T07:13:44.898Z,98.70
2022-08-09T07:16:43.863Z,99.00
2022-08-09T07:19:10.724Z,98.50
2022-08-09T07:21:55.217Z,97.90
2022-08-09T07:24:32.172Z,97.80
2022-08-09T07:27:33.103Z,97.80
2022-08-09T07:29:58.949Z,97.20
2022-08-09T07:32:33.095Z,97.20
2022-08-09T07:35:08.035Z,97.70
2022-08-09T07:37:45.716Z,96.90
2022-08-09T07:40:17.238Z,97.30
2022-08-09T07:42:56.332Z,97.40
2022-08-09T07:45:39.518Z,97.20
2022-08-09T07:48:22.460Z,97.10
2022-08-09T07:51:10.372Z,97.50
2022-08-09T07:54:05.043Z,96.60
2022-08-09T07:56:31.652Z,96.70
2022-08-09T07:58:59.585Z,96.60
2022-08-09T08:01:28.474Z,96.60
2022-08-09T08:04:01.211Z,95.60
2022-08-09T08:06:31.818Z,94.70
2022-08-09T08:09:04.877Z,95.00
2022-08-09T08:12:25.062Z,94.30
2022-08-09T08:14:24.016Z,94.30
2022-08-09T08:17:01.073Z,94.20
2022-08-09T08:19:36.851Z,93.80
2022-08-09T08:22:05.694Z,93.80
2022-08-09T08:24:40.086Z,92.90
2022-08-09T08:27:16.885Z,92.80
2022-08-09T08:29:50.135Z,92.60
2022-08-09T08:32:41.292Z,92.60
2022-08-09T08:35:08.235Z,92.10
2022-08-09T08:37:42.036Z,91.30
2022-08-09T08:40:23.096Z,91.10
2022-08-09T08:42:54.285Z,91.60
2022-08-09T08:45:39.365Z,90.90
2022-08-09T08:48:19.555Z,91.80
2022-08-09T08:50:49.330Z,91.20
2022-08-09T08:53:22.436Z,90.90
2022-08-09T08:55:52.357Z,90.50
2022-08-09T08:58:27.196Z,90.30
2022-08-09T09:00:57.015Z,90.00
2022-08-09T09:03:37.132Z,89.80
2022-08-09T09:06:07.173Z,89.40
2022-08-09T09:08:42.714Z,87.60
2022-08-09T09:11:17.474Z,88.80
2022-08-09T09:13:56.595Z,87.50
2022-08-09T09:16:32.172Z,86.80
2022-08-09T09:22:12.584Z,86.30
2022-08-09T09:24:43.360Z,85.10
2022-08-09T09:28:02.918Z,83.60
2022-08-09T09:30:38.033Z,85.00
2022-08-09T09:33:16.668Z,85.00
2022-08-09T09:36:19.818Z,81.40
2022-08-09T09:38:58.055Z,80.80
2022-08-09T09:41:33.219Z,80.80
2022-08-09T09:44:11.832Z,79.30
2022-08-09T09:46:46.237Z,78.80
2022-08-09T09:49:31.954Z,77.40
2022-08-09T09:52:16.396Z,78.80
2022-08-09T09:55:16.342Z,76.10
2022-08-09T09:58:18.800Z,75.40
2022-08-09T10:00:59.026Z,75.00
2022-08-09T10:04:01.462Z,72.40
2022-08-09T10:06:42.975Z,74.30
2022-08-09T10:09:22.401Z,74.00
2022-08-09T10:12:14.243Z,72.50
2022-08-09T10:14:51.685Z,71.60
2022-08-09T10:17:40.340Z,70.60
2022-08-09T10:20:32.038Z,71.30
2022-08-09T10:23:24.019Z,73.10
2022-08-09T10:26:06.094Z,71.10
2022-08-09T10:28:37.467Z,70.60
2022-08-09T10:34:09.123Z,69.20
2022-08-09T10:36:45.503Z,69.10
2022-08-09T10:39:16.014Z,70.60
2022-08-09T10:41:48.192Z,70.80
2022-08-09T10:44:21.811Z,70.10
2022-08-09T10:48:12.678Z,70.80
2022-08-09T10:50:26.967Z,72.60
2022-08-09T10:53:21.197Z,68.60
2022-08-09T10:55:58.101Z,66.50
2022-08-09T10:58:35.055Z,67.20
2022-08-09T11:03:01.794Z,67.80
2022-08-09T11:04:28.134Z,68.30
2022-08-09T11:07:01.436Z,67.10
2022-08-09T11:09:47.823Z,65.70
2022-08-09T11:12:26.505Z,64.90
2022-08-09T11:14:58.940Z,64.30
2022-08-09T11:17:26.350Z,65.50
2022-08-09T11:20:08.084Z,67.80
2022-08-09T11:22:45.953Z,64.20
2022-08-09T11:25:18.028Z,63.30
2022-08-09T11:28:05.486Z,63.30
2022-08-09T11:30:47.791Z,62.70
2022-08-09T11:33:20.371Z,63.30
2022-08-09T11:35:59.132Z,62.20
2022-08-09T11:38:41.561Z,61.30
2022-08-09T11:41:13.011Z,64.10
2022-08-09T11:43:49.171Z,60.10
2022-08-09T11:46:32.989Z,58.50
2022-08-09T11:49:01.042Z,59.00
2022-08-09T11:53:04.024Z,59.60
2022-08-09T11:55:07.828Z,59.40
2022-08-09T11:57:47.757Z,60.80
2022-08-09T12:00:28.961Z,58.60
2022-08-09T12:02:59.432Z,59.60
2022-08-09T12:05:42.360Z,60.20
2022-08-09T12:08:21.505Z,59.40
2022-08-09T12:10:48.751Z,60.40
2022-08-09T12:14:07.874Z,60.80
2022-08-09T12:16:38.580Z,59.10
2022-08-09T12:19:09.364Z,58.60
2022-08-09T12:21:53.962Z,57.90
2022-08-09T12:24:25.011Z,55.90
2022-08-09T12:29:13.166Z,56.00
2022-08-09T12:30:01.781Z,56.50
2022-08-09T12:32:44.538Z,55.80
2022-08-09T12:35:13.221Z,54.50
2022-08-09T12:37:51.714Z,54.20
2022-08-09T12:40:23.237Z,53.90
2022-08-09T12:42:52.819Z,53.60
2022-08-09T12:45:34.534Z,56.00
2022-08-09T12:48:20.061Z,54.50
2022-08-09T12:50:57.484Z,51.80
2022-08-09T12:53:37.878Z,52.20
2022-08-09T12:56:39.881Z,52.20
2022-08-09T12:59:18.669Z,51.90
2022-08-09T13:01:59.260Z,51.80
2022-08-09T13:04:36.994Z,52.40
2022-08-09T13:07:19.616Z,54.30
2022-08-09T13:10:03.064Z,55.10
2022-08-09T13:12:30.871Z,53.70
2022-08-09T13:15:27.346Z,55.20
2022-08-09T13:18:09.646Z,53.20
2022-08-09T13:21:03.796Z,52.60
2022-08-09T13:24:16.462Z,54.00
2022-08-09T13:26:49.826Z,52.80
2022-08-09T13:29:42.082Z,53.70
2022-08-09T13:32:20.425Z,55.20
2022-08-09T13:34:54.603Z,55.30
2022-08-09T13:37:50.712Z,55.00
2022-08-09T13:41:46.176Z,54.20
2022-08-09T13:42:59.847Z,54.70
2022-08-09T13:45:32.604Z,55.40
2022-08-09T13:48:19.673Z,55.40
2022-08-09T13:50:46.674Z,53.80
2022-08-09T13:53:16.577Z,53.40
2022-08-09T13:55:44.870Z,54.50
2022-08-09T13:58:15.055Z,55.00
2022-08-09T14:00:46.180Z,56.30
2022-08-09T14:04:04.789Z,55.30
2022-08-09T14:06:14.806Z,53.80
2022-08-09T14:08:52.753Z,52.50
2022-08-09T14:11:20.517Z,53.70
2022-08-09T14:14:24.316Z,53.10
2022-08-09T14:16:37.122Z,52.50
2022-08-09T14:19:07.272Z,49.10
2022-08-09T14:21:36.750Z,50.20
2022-08-09T14:24:18.371Z,50.20
2022-08-09T14:26:51.985Z,51.10
2022-08-09T14:30:15.212Z,51.50
2022-08-09T14:32:11.348Z,48.00
2022-08-09T14:34:43.584Z,50.10
2022-08-09T14:37:11.867Z,50.20
2022-08-09T14:39:47.046Z,52.80
2022-08-09T14:42:30.301Z,51.40
2022-08-09T14:46:40.337Z,50.70
2022-08-09T14:47:58.513Z,50.60
2022-08-09T14:50:29.113Z,51.10
2022-08-09T14:52:56.414Z,51.30
2022-08-09T14:55:32.312Z,51.10
2022-08-09T14:58:04.762Z,48.20
2022-08-09T15:00:36.059Z,49.60
2022-08-09T15:03:06.624Z,48.70
2022-08-09T15:05:34.853Z,49.20
2022-08-09T15:08:10.475Z,50.70
2022-08-09T15:10:38.537Z,50.60
2022-08-09T15:13:08.751Z,50.60
2022-08-09T15:15:39.077Z,50.10
2022-08-09T15:18:08.370Z,52.70
2022-08-09T15:22:00.453Z,54.70
2022-08-09T15:24:02.570Z,53.20
2022-08-09T15:26:19.273Z,52.60
2022-08-09T15:28:57.874Z,51.10
2022-08-09T15:31:41.245Z,50.50
2022-08-09T15:34:32.057Z,48.20
2022-08-09T15:36:58.265Z,48.20
2022-08-09T15:39:25.681Z,48.30
2022-08-09T15:42:02.624Z,48.60
2022-08-09T15:44:32.625Z,48.40
2022-08-09T15:47:03.692Z,49.40
2022-08-09T15:49:32.312Z,49.70
2022-08-09T15:52:02.676Z,49.60
2022-08-09T15:54:49.209Z,50.80
2022-08-09T15:57:35.392Z,49.90
2022-08-09T16:00:14.272Z,49.40
2022-08-09T16:02:53.398Z,50.40
2022-08-09T16:05:22.585Z,49.30
2022-08-09T16:07:50.640Z,48.40
2022-08-09T16:10:55.510Z,49.60
2022-08-09T16:13:20.698Z,50.90
2022-08-09T16:16:11.627Z,52.90
2022-08-09T16:18:45.207Z,52.80
2022-08-09T16:21:17.784Z,50.40
2022-08-09T16:23:55.974Z,51.40
2022-08-09T16:26:35.170Z,53.20
2022-08-09T16:29:12.626Z,54.10
2022-08-09T16:32:18.468Z,51.70
2022-08-09T16:34:55.169Z,53.40
2022-08-09T16:37:20.319Z,52.70
2022-08-09T16:40:08.785Z,52.70
2022-08-09T16:42:36.521Z,52.50
2022-08-09T16:45:05.732Z,52.70
2022-08-09T16:48:38.671Z,52.60
2022-08-09T16:50:29.507Z,52.80
2022-08-09T16:53:00.430Z,54.40
2022-08-09T16:55:27.508Z,53.50
2022-08-09T16:58:21.179Z,53.90
2022-08-09T17:00:49.166Z,54.40
2022-08-09T17:03:21.068Z,54.10
2022-08-09T17:06:07.433Z,55.80
2022-08-09T17:08:44.907Z,55.20
2022-08-09T17:11:40.430Z,55.40
2022-08-09T17:14:25.961Z,54.30
2022-08-09T17:17:02.194Z,55.20
2022-08-09T17:20:11.125Z,54.70
2022-08-09T17:22:30.808Z,54.30
2022-08-09T17:25:03.454Z,55.70
2022-08-09T17:27:37.518Z,54.20
2022-08-09T17:30:12.748Z,54.60
2022-08-09T17:32:45.507Z,54.10
2022-08-09T17:35:14.444Z,54.60
2022-08-09T17:38:11.376Z,54.40
2022-08-09T17:40:34.896Z,54.70
2022-08-09T17:43:32.289Z,54.80
2022-08-09T17:46:06.329Z,54.60
2022-08-09T17:48:38.971Z,53.60
2022-08-09T17:51:17.079Z,53.10
2022-08-09T17:53:51.968Z,51.30
2022-08-09T17:56:27.285Z,51.00
2022-08-09T17:59:02.990Z,51.20
2022-08-09T18:01:57.864Z,50.90
2022-08-09T18:04:19.780Z,52.00
2022-08-09T18:06:54.322Z,50.00
2022-08-09T18:09:40.720Z,50.60
2022-08-09T18:12:19.523Z,50.80
2022-08-09T18:14:55.125Z,51.40
2022-08-09T18:18:02.806Z,51.80
2022-08-09T18:20:58.802Z,52.10
2022-08-09T18:23:07.446Z,54.10
2022-08-09T18:25:52.944Z,55.60
2022-08-09T18:30:38.744Z,56.40
2022-08-09T18:31:25.162Z,57.00
2022-08-09T18:34:04.314Z,57.60
2022-08-09T18:36:32.114Z,59.70
2022-08-09T18:39:05.902Z,59.70
2022-08-09T18:41:34.365Z,59.50
2022-08-09T18:44:13.295Z,60.70
2022-08-09T18:46:47.437Z,60.90
2022-08-09T18:49:20.247Z,60.80
2022-08-09T18:51:55.619Z,62.80
2022-08-09T18:54:29.593Z,62.80
2022-08-09T18:57:05.601Z,63.80
2022-08-09T18:59:37.363Z,63.40
2022-08-09T19:02:16.911Z,65.10
2022-08-09T19:04:47.610Z,63.90
2022-08-09T19:07:16.259Z,64.90
2022-08-09T19:10:17.371Z,64.80
2022-08-09T19:12:31.970Z,64.80
2022-08-09T19:15:01.474Z,66.50
2022-08-09T19:17:31.178Z,66.50
2022-08-09T19:20:00.529Z,66.60
2022-08-09T19:22:28.060Z,67.10
2022-08-09T19:25:12.000Z,67.30
2022-08-09T19:27:44.509Z,67.50
2022-08-09T19:30:22.475Z,68.20
2022-08-09T19:32:55.332Z,68.20
2022-08-09T19:35:26.235Z,69.40
2022-08-09T19:37:57.450Z,69.70
2022-08-09T19:40:33.126Z,70.20
2022-08-09T19:43:02.990Z,70.10
2022-08-09T19:45:39.061Z,71.10
2022-08-09T19:48:07.503Z,70.80
2022-08-09T19:50:49.250Z,71.70
2022-08-09T19:53:20.832Z,71.50
2022-08-09T19:56:01.999Z,72.60
2022-08-09T19:58:32.623Z,73.00
2022-08-09T20:01:00.057Z,73.50
2022-08-09T20:04:18.091Z,73.70
2022-08-09T20:06:23.909Z,74.10
2022-08-09T20:08:57.674Z,74.60
2022-08-09T20:11:33.750Z,75.40
2022-08-09T20:14:16.385Z,76.70
2022-08-09T20:16:54.402Z,77.30
2022-08-09T20:19:47.626Z,82.80
2022-08-09T20:22:10.187Z,87.20
2022-08-09T20:24:41.841Z,89.20
2022-08-09T20:27:08.929Z,92.50
2022-08-09T20:29:39.264Z,93.10
2022-08-09T20:32:28.902Z,94.50
2022-08-09T20:34:58.088Z,95.70
2022-08-09T20:37:25.467Z,96.30
2022-08-09T20:40:16.227Z,97.40
2022-08-09T20:43:00.201Z,98.20
2022-08-09T20:45:57.767Z,99.20
2022-08-09T20:48:22.238Z,98.20
2022-08-09T20:50:55.758Z,99.20
2022-08-09T20:53:36.281Z,99.40
2022-08-09T20:56:09.688Z,99.60
2022-08-09T20:58:49.549Z,99.90
2022-08-09T21:01:34.973Z,99.90
2022-08-09T21:05:49.799Z,99.90
2022-08-09T21:06:53.688Z,99.90
2022-08-09T21:09:32.595Z,99.90
2022-08-09T21:14:42.625Z,99.90
2022-08-09T21:18:23.529Z,99.90
2022-08-09T21:20:19.303Z,99.90
2022-08-09T21:22:52.687Z,99.90
2022-08-09T21:25:44.310Z,99.90
2022-08-09T21:28:34.513Z,99.90
2022-08-09T21:31:19.378Z,99.90
2022-08-09T21:33:52.676Z,99.90
2022-08-09T21:36:23.493Z,99.90
2022-08-09T21:38:57.891Z,99.90
2022-08-09T21:42:04.476Z,99.90
2022-08-09T21:44:34.764Z,99.90
2022-08-09T21:47:05.678Z,99.90
2022-08-09T21:49:39.270Z,99.90
2022-08-09T21:52:15.131Z,99.90
2022-08-09T21:54:59.371Z,99.90
2022-08-09T21:57:38.845Z,99.90
2022-08-09T22:00:33.226Z,99.90
2022-08-09T22:03:04.882Z,99.90
2022-08-09T22:05:41.857Z,99.90
2022-08-09T22:08:13.587Z,99.90
2022-08-09T22:11:00.956Z,99.90
2022-08-09T22:13:35.913Z,99.90
2022-08-09T22:16:08.929Z,99.90
2022-08-09T22:18:38.621Z,99.90
2022-08-09T22:21:27.434Z,99.90
2022-08-09T22:24:17.025Z,99.90
2022-08-09T22:26:51.719Z,99.90
2022-08-09T22:29:22.979Z,99.90
2022-08-09T22:31:57.257Z,99.90
2022-08-09T22:34:26.602Z,99.90
2022-08-09T22:36:55.453Z,99.90
2022-08-09T22:39:56.413Z,99.90
2022-08-09T22:42:22.565Z,99.90
2022-08-09T22:48:06.081Z,99.90
2022-08-09T22:48:17.011Z,99.90
2022-08-09T22:50:30.400Z,99.90
2022-08-09T22:52:58.733Z,99.90
2022-08-09T22:55:39.749Z,99.90
2022-08-09T22:58:20.377Z,99.90
2022-08-09T23:01:03.926Z,99.90
2022-08-09T23:04:03.782Z,99.90
2022-08-09T23:06:35.493Z,99.90
2022-08-09T23:09:05.699Z,99.90
2022-08-09T23:11:32.644Z,99.90
2022-08-09T23:13:59.726Z,99.90
2022-08-09T23:16:30.526Z,99.90
2022-08-09T23:18:57.409Z,99.90
2022-08-09T23:21:29.957Z,99.90
2022-08-09T23:24:06.503Z,99.90
2022-08-09T23:26:37.976Z,99.90
2022-08-09T23:29:09.446Z,99.90
2022-08-09T23:31:36.580Z,99.90
2022-08-09T23:34:04.242Z,99.90
2022-08-09T23:36:35.170Z,99.90
2022-08-09T23:39:03.984Z,99.90
2022-08-09T23:41:32.116Z,99.90
2022-08-09T23:44:00.179Z,99.90
2022-08-09T23:46:29.053Z,99.90
2022-08-09T23:48:57.637Z,99.90
2022-08-09T23:51:25.094Z,99.90
2022-08-09T23:53:55.372Z,99.90
2022-08-09T23:56:52.088Z,99.90
2022-08-09T23:59:18.682Z,99.90
